createdAt,value
2023-02-28T00:01:35.556Z,5.80
2023-02-28T00:04:03.499Z,6.60
2023-02-28T00:06:34.050Z,7.53
2023-02-28T00:09:01.721Z,6.90
2023-02-28T00:11:32.198Z,6.33
2023-02-28T00:14:00.388Z,6.40
2023-02-28T00:16:28.278Z,6.53
2023-02-28T00:18:55.887Z,6.37
2023-02-28T00:21:23.534Z,6.13
2023-02-28T00:23:52.081Z,6.90
2023-02-28T00:26:21.686Z,5.50
2023-02-28T00:28:54.029Z,6.50
2023-02-28T00:31:21.677Z,4.13
2023-02-28T00:33:49.222Z,6.47
2023-02-28T00:36:16.908Z,5.70
2023-02-28T00:38:44.713Z,6.27
2023-02-28T00:41:13.460Z,6.03
2023-02-28T00:43:44.334Z,5.90
2023-02-28T00:46:11.983Z,6.40
2023-02-28T00:48:42.452Z,6.23
2023-02-28T00:51:10.012Z,6.07
2023-02-28T00:53:37.568Z,6.83
2023-02-28T00:56:05.511Z,7.07
2023-02-28T00:58:33.779Z,6.50
2023-02-28T01:01:01.422Z,6.87
2023-02-28T01:03:29.218Z,6.33
2023-02-28T01:05:57.063Z,6.73
2023-02-28T01:08:24.793Z,6.80
2023-02-28T01:10:52.878Z,5.67
2023-02-28T01:13:23.957Z,5.90
2023-02-28T01:15:56.735Z,6.23
2023-02-28T01:18:25.816Z,6.47
2023-02-28T01:20:53.718Z,5.83
2023-02-28T01:23:24.552Z,4.63
2023-02-28T01:25:53.287Z,6.30
2023-02-28T01:28:21.363Z,6.10
2023-02-28T01:30:52.699Z,5.93
2023-02-28T01:33:20.587Z,4.20
2023-02-28T01:35:49.936Z,4.97
2023-02-28T01:38:22.667Z,6.70
2023-02-28T01:40:51.531Z,6.80
2023-02-28T01:43:26.189Z,6.70
2023-02-28T01:45:56.108Z,5.13
2023-02-28T01:48:27.949Z,5.20
2023-02-28T01:51:01.139Z,4.97
2023-02-28T01:53:38.761Z,5.87
2023-02-28T01:56:08.635Z,5.07
2023-02-28T01:58:37.494Z,5.57
2023-02-28T02:01:05.785Z,5.53
2023-02-28T02:03:33.603Z,4.83
2023-02-28T02:06:01.747Z,5.60
2023-02-28T02:08:32.325Z,5.07
2023-02-28T02:11:02.634Z,5.67
2023-02-28T02:13:57.117Z,5.67
2023-02-28T02:16:42.821Z,5.53
2023-02-28T02:19:56.891Z,5.03
2023-02-28T02:22:46.252Z,5.20
2023-02-28T02:25:35.562Z,4.93
2023-02-28T02:28:10.838Z,4.40
2023-02-28T02:31:00.002Z,5.27
2023-02-28T02:34:09.072Z,5.00
2023-02-28T02:36:52.337Z,4.67
2023-02-28T02:42:03.711Z,4.33
2023-02-28T02:45:03.079Z,5.22
2023-02-28T02:47:37.860Z,4.30
2023-02-28T02:50:09.667Z,4.43
2023-02-28T02:52:43.082Z,4.47
2023-02-28T02:55:14.550Z,5.70
2023-02-28T02:58:11.570Z,4.77
2023-02-28T03:00:52.627Z,4.80
2023-02-28T03:03:30.073Z,4.77
2023-02-28T03:06:02.725Z,4.90
2023-02-28T03:08:35.096Z,5.38
2023-02-28T03:13:46.260Z,4.73
2023-02-28T03:16:34.759Z,4.23
2023-02-28T03:19:38.298Z,4.30
2023-02-28T03:22:19.015Z,4.50
2023-02-28T03:25:03.571Z,4.00
2023-02-28T03:27:43.139Z,4.63
2023-02-28T03:30:42.100Z,2.60
2023-02-28T03:33:16.260Z,4.10
2023-02-28T03:35:52.871Z,4.03
2023-02-28T03:38:27.036Z,4.20
2023-02-28T03:41:14.571Z,4.23
2023-02-28T03:43:46.370Z,2.10
2023-02-28T03:46:19.463Z,4.18
2023-02-28T03:48:56.902Z,4.23
2023-02-28T03:51:27.891Z,4.37
2023-02-28T03:54:01.145Z,3.77
2023-02-28T03:56:38.929Z,3.80
2023-02-28T03:59:15.878Z,4.40
2023-02-28T04:01:46.319Z,4.50
2023-02-28T04:04:15.333Z,3.60
2023-02-28T04:06:44.059Z,4.13
2023-02-28T04:09:14.874Z,4.00
2023-02-28T04:11:45.758Z,4.13
2023-02-28T04:14:13.998Z,3.90
2023-02-28T04:16:43.604Z,3.20
2023-02-28T04:19:13.606Z,3.97
2023-02-28T04:21:52.872Z,3.57
2023-02-28T04:24:25.750Z,4.40
2023-02-28T04:26:55.430Z,3.53
2023-02-28T04:29:31.997Z,3.33
2023-02-28T04:32:01.097Z,3.50
2023-02-28T04:34:31.192Z,2.20
2023-02-28T04:37:12.289Z,3.50
2023-02-28T04:39:41.317Z,3.08
2023-02-28T04:42:09.045Z,2.80
2023-02-28T04:44:36.600Z,2.90
2023-02-28T04:47:04.190Z,3.50
2023-02-28T04:49:31.842Z,3.60
2023-02-28T04:52:02.079Z,4.10
2023-02-28T04:54:29.785Z,3.67
2023-02-28T04:56:57.435Z,3.75
2023-02-28T04:59:25.114Z,3.55
2023-02-28T05:01:52.845Z,3.90
2023-02-28T05:04:20.461Z,3.70
2023-02-28T05:06:48.033Z,3.60
2023-02-28T05:09:15.712Z,3.17
2023-02-28T05:11:43.419Z,3.45
2023-02-28T05:14:14.467Z,3.55
2023-02-28T05:16:41.994Z,3.75
2023-02-28T05:19:09.861Z,3.30
2023-02-28T05:21:42.678Z,3.83
2023-02-28T05:24:13.671Z,3.45
2023-02-28T05:26:43.318Z,2.80
2023-02-28T05:29:11.747Z,3.53
2023-02-28T05:31:39.787Z,2.70
2023-02-28T05:34:07.930Z,3.22
2023-02-28T05:36:37.900Z,3.38
2023-02-28T05:39:13.940Z,3.35
2023-02-28T05:41:45.184Z,2.65
2023-02-28T05:44:13.674Z,3.00
2023-02-28T05:46:41.310Z,3.23
2023-02-28T05:49:09.417Z,2.97
2023-02-28T05:51:40.986Z,2.80
2023-02-28T05:54:09.463Z,2.47
2023-02-28T05:56:38.971Z,3.47
2023-02-28T05:59:06.754Z,2.87
2023-02-28T06:01:54.565Z,2.03
2023-02-28T06:04:31.599Z,3.83
2023-02-28T06:06:59.989Z,3.57
2023-02-28T06:09:27.690Z,3.13
2023-02-28T06:11:55.388Z,3.67
2023-02-28T06:14:23.001Z,2.33
2023-02-28T06:16:50.686Z,2.93
2023-02-28T06:19:18.528Z,2.63
2023-02-28T06:21:46.495Z,3.67
2023-02-28T06:24:14.044Z,3.60
2023-02-28T06:26:41.871Z,3.73
2023-02-28T06:29:10.107Z,3.30
2023-02-28T06:31:37.781Z,3.00
2023-02-28T06:34:06.365Z,3.20
2023-02-28T06:36:34.056Z,3.40
2023-02-28T06:39:01.749Z,3.60
2023-02-28T06:41:31.398Z,3.05
2023-02-28T06:44:01.995Z,2.92
2023-02-28T06:46:29.581Z,2.33
2023-02-28T06:48:57.133Z,2.75
2023-02-28T06:51:25.635Z,3.28
2023-02-28T06:53:53.313Z,2.80
2023-02-28T06:56:22.064Z,3.53
2023-02-28T06:58:51.199Z,3.35
2023-02-28T07:01:20.392Z,2.55
2023-02-28T07:03:48.181Z,3.05
2023-02-28T07:06:15.748Z,2.65
2023-02-28T07:08:43.309Z,2.67
2023-02-28T07:11:10.927Z,2.60
2023-02-28T07:13:38.565Z,2.65
2023-02-28T07:16:10.886Z,3.50
2023-02-28T07:18:39.282Z,3.25
2023-02-28T07:21:09.439Z,3.10
2023-02-28T07:23:39.247Z,3.22
2023-02-28T07:26:07.987Z,2.85
2023-02-28T07:28:35.643Z,3.05
2023-02-28T07:31:07.844Z,2.40
2023-02-28T07:33:38.888Z,3.22
2023-02-28T07:36:09.621Z,3.05
2023-02-28T07:38:38.662Z,2.75
2023-02-28T07:41:06.487Z,1.85
2023-02-28T07:43:34.561Z,2.90
2023-02-28T07:46:11.151Z,2.72
2023-02-28T07:48:38.939Z,2.60
2023-02-28T07:51:09.652Z,1.75
2023-02-28T07:53:37.249Z,3.28
2023-02-28T07:56:05.266Z,2.95
2023-02-28T07:58:32.979Z,2.95
2023-02-28T08:01:08.592Z,3.25
2023-02-28T08:03:37.010Z,3.00
2023-02-28T08:06:06.848Z,3.05
2023-02-28T08:08:37.754Z,3.10
2023-02-28T08:11:06.674Z,2.67
2023-02-28T08:13:34.278Z,3.85
2023-02-28T08:16:03.000Z,3.33
2023-02-28T08:18:31.165Z,3.58
2023-02-28T08:20:58.857Z,3.33
2023-02-28T08:23:26.415Z,2.80
2023-02-28T08:25:57.877Z,3.25
2023-02-28T08:28:27.281Z,3.20
2023-02-28T08:30:56.263Z,3.08
2023-02-28T08:33:24.297Z,2.63
2023-02-28T08:35:55.665Z,3.10
2023-02-28T08:38:24.159Z,3.17
2023-02-28T08:40:58.242Z,3.10
2023-02-28T08:43:25.919Z,3.00
2023-02-28T08:45:58.158Z,3.30
2023-02-28T08:48:30.954Z,3.15
2023-02-28T08:51:07.569Z,3.50
2023-02-28T08:53:36.513Z,3.53
2023-02-28T08:56:11.421Z,3.05
2023-02-28T08:58:40.352Z,3.42
2023-02-28T09:01:19.903Z,3.13
2023-02-28T09:03:49.675Z,3.05
2023-02-28T09:06:20.040Z,3.42
2023-02-28T09:08:47.892Z,2.92
2023-02-28T09:11:15.704Z,3.15
2023-02-28T09:13:43.434Z,3.08
2023-02-28T09:16:14.079Z,3.30
2023-02-28T09:18:42.278Z,2.80
2023-02-28T09:21:14.781Z,3.15
2023-02-28T09:23:44.441Z,3.60
2023-02-28T09:26:21.043Z,2.83
2023-02-28T09:28:48.711Z,3.17
2023-02-28T09:31:22.086Z,3.90
2023-02-28T09:33:51.993Z,2.42
2023-02-28T09:36:20.955Z,2.95
2023-02-28T09:38:49.807Z,2.60
2023-02-28T09:41:24.170Z,2.28
2023-02-28T09:43:59.227Z,2.67
2023-02-28T09:46:38.770Z,3.40
2023-02-28T09:49:12.555Z,3.70
2023-02-28T09:52:01.240Z,3.58
2023-02-28T09:54:32.460Z,3.63
2023-02-28T09:57:20.154Z,3.53
2023-02-28T10:00:11.531Z,3.40
2023-02-28T10:03:04.677Z,3.20
2023-02-28T10:05:38.680Z,3.20
2023-02-28T10:08:15.039Z,3.30
2023-02-28T10:10:53.013Z,3.17
2023-02-28T10:13:45.598Z,3.42
2023-02-28T10:16:25.333Z,3.53
2023-02-28T10:19:05.602Z,3.53
2023-02-28T10:21:45.375Z,3.30
2023-02-28T10:24:38.799Z,4.03
2023-02-28T10:29:55.092Z,3.70
2023-02-28T10:32:34.267Z,3.10
2023-02-28T10:35:10.829Z,3.05
2023-02-28T10:37:50.502Z,3.88
2023-02-28T10:40:23.391Z,3.38
2023-02-28T10:45:40.007Z,3.28
2023-02-28T10:48:33.364Z,3.00
2023-02-28T10:54:00.142Z,2.78
2023-02-28T10:56:29.378Z,3.38
2023-02-28T10:59:38.056Z,4.00
2023-02-28T11:02:31.362Z,3.60
2023-02-28T11:07:37.325Z,3.50
2023-02-28T11:10:23.715Z,3.80
2023-02-28T11:12:55.399Z,3.60
2023-02-28T11:15:34.276Z,4.20
2023-02-28T11:18:21.955Z,3.67
2023-02-28T11:20:52.641Z,3.50
2023-02-28T11:23:21.817Z,2.72
2023-02-28T11:26:00.511Z,3.50
2023-02-28T11:28:33.685Z,3.63
2023-02-28T11:31:07.995Z,3.47
2023-02-28T11:34:27.533Z,3.75
2023-02-28T11:37:00.508Z,4.05
2023-02-28T11:42:23.203Z,3.05
2023-02-28T11:44:56.183Z,3.60
2023-02-28T11:47:29.477Z,4.05
2023-02-28T11:50:06.369Z,3.70
2023-02-28T11:52:54.905Z,3.85
2023-02-28T11:55:22.381Z,4.05
2023-02-28T11:57:51.676Z,3.70
2023-02-28T12:00:31.595Z,3.60
2023-02-28T12:03:26.051Z,3.25
2023-02-28T12:06:18.556Z,4.13
2023-02-28T12:09:12.146Z,3.65
2023-02-28T12:11:57.020Z,3.90
2023-02-28T12:15:02.853Z,3.72
2023-02-28T12:17:39.382Z,3.10
2023-02-28T12:20:16.199Z,3.58
2023-02-28T12:23:12.905Z,3.35
2023-02-28T12:26:01.667Z,3.97
2023-02-28T12:28:35.701Z,4.18
2023-02-28T12:31:10.654Z,3.83
2023-02-28T12:33:46.413Z,2.78
2023-02-28T12:39:07.798Z,3.20
2023-02-28T12:41:41.718Z,3.67
2023-02-28T12:44:41.400Z,3.60
2023-02-28T12:47:15.757Z,3.45
2023-02-28T12:49:51.042Z,4.32
2023-02-28T12:52:26.658Z,3.60
2023-02-28T12:55:05.269Z,3.60
2023-02-28T12:58:26.646Z,3.25
2023-02-28T13:01:15.039Z,3.78
2023-02-28T13:04:19.380Z,3.58
2023-02-28T13:06:49.722Z,3.50
2023-02-28T13:09:17.941Z,3.55
2023-02-28T13:11:54.924Z,3.75
2023-02-28T13:14:25.950Z,3.17
2023-02-28T13:17:09.597Z,3.72
2023-02-28T13:19:47.039Z,3.35
2023-02-28T13:22:45.462Z,4.03
2023-02-28T13:25:39.277Z,3.10
2023-02-28T13:28:15.772Z,3.63
2023-02-28T13:30:53.191Z,3.65
2023-02-28T13:33:36.765Z,3.65
2023-02-28T13:36:11.867Z,2.85
2023-02-28T13:38:50.779Z,3.72
2023-02-28T13:41:30.750Z,2.97
2023-02-28T13:44:25.353Z,3.30
2023-02-28T13:46:52.881Z,3.22
2023-02-28T13:49:27.715Z,3.25
2023-02-28T13:52:07.559Z,3.67
2023-02-28T13:55:02.212Z,3.50
2023-02-28T13:58:12.925Z,3.15
2023-02-28T14:01:08.120Z,3.53
2023-02-28T14:04:06.154Z,3.22
2023-02-28T14:06:38.934Z,3.28
2023-02-28T14:09:25.283Z,3.55
2023-02-28T14:11:56.508Z,3.22
2023-02-28T14:14:36.031Z,3.30
2023-02-28T14:17:05.987Z,3.22
2023-02-28T14:19:35.184Z,3.15
2023-02-28T14:22:29.073Z,3.22
2023-02-28T14:25:08.312Z,3.55
2023-02-28T14:28:17.004Z,3.50
2023-02-28T14:31:03.031Z,3.35
2023-02-28T14:33:45.710Z,3.60
2023-02-28T14:36:27.869Z,3.35
2023-02-28T14:39:00.744Z,3.25
2023-02-28T14:41:37.907Z,3.40
2023-02-28T14:44:18.138Z,3.72
2023-02-28T14:46:47.907Z,3.42
2023-02-28T14:49:37.462Z,3.10
2023-02-28T14:52:20.966Z,4.40
2023-02-28T14:54:57.276Z,3.63
2023-02-28T14:57:36.466Z,3.30
2023-02-28T15:00:15.513Z,3.15
2023-02-28T15:02:46.313Z,2.60
2023-02-28T15:05:13.773Z,3.03
2023-02-28T15:07:41.403Z,3.10
2023-02-28T15:10:29.355Z,3.63
2023-02-28T15:13:05.600Z,3.15
2023-02-28T15:16:08.422Z,3.17
2023-02-28T15:18:50.632Z,3.22
2023-02-28T15:21:40.613Z,3.00
2023-02-28T15:24:43.425Z,3.22
2023-02-28T15:27:35.929Z,3.20
2023-02-28T15:30:16.713Z,3.75
2023-02-28T15:32:44.376Z,3.60
2023-02-28T15:35:26.983Z,3.35
2023-02-28T15:38:02.298Z,3.58
2023-02-28T15:40:33.977Z,3.67
2023-02-28T15:43:23.983Z,3.65
2023-02-28T15:46:00.213Z,3.33
2023-02-28T15:48:33.589Z,2.90
2023-02-28T15:51:31.028Z,3.30
2023-02-28T15:54:01.942Z,3.88
2023-02-28T15:56:35.108Z,3.08
2023-02-28T15:59:06.431Z,2.13
2023-02-28T16:01:36.487Z,2.83
2023-02-28T16:04:13.983Z,2.42
2023-02-28T16:07:01.476Z,2.78
2023-02-28T16:09:30.785Z,2.80
2023-02-28T16:12:02.847Z,2.95
2023-02-28T16:14:32.084Z,2.72
2023-02-28T16:17:10.078Z,3.35
2023-02-28T16:19:37.773Z,2.90
2023-02-28T16:22:05.411Z,3.08
2023-02-28T16:24:33.012Z,2.78
2023-02-28T16:27:01.590Z,2.92
2023-02-28T16:29:33.146Z,2.83
2023-02-28T16:32:02.055Z,3.35
2023-02-28T16:34:29.623Z,3.20
2023-02-28T16:36:57.207Z,2.78
2023-02-28T16:39:24.778Z,2.80
2023-02-28T16:41:53.197Z,2.63
2023-02-28T16:44:31.265Z,2.17
2023-02-28T16:47:00.753Z,2.45
2023-02-28T16:49:28.832Z,2.45
2023-02-28T16:51:56.843Z,2.50
2023-02-28T16:54:24.698Z,2.90
2023-02-28T16:56:52.317Z,2.70
2023-02-28T16:59:26.410Z,2.70
2023-02-28T17:01:54.599Z,2.40
2023-02-28T17:04:23.520Z,2.10
2023-02-28T17:06:52.000Z,2.42
2023-02-28T17:09:26.248Z,2.58
2023-02-28T17:11:58.605Z,2.88
2023-02-28T17:14:26.373Z,2.65
2023-02-28T17:16:53.903Z,2.40
2023-02-28T17:19:24.229Z,2.60
2023-02-28T17:21:52.054Z,2.30
2023-02-28T17:24:30.289Z,2.40
2023-02-28T17:26:58.795Z,2.30
2023-02-28T17:29:26.378Z,2.50
2023-02-28T17:31:54.236Z,2.65
2023-02-28T17:34:22.799Z,2.20
2023-02-28T17:36:53.419Z,2.25
2023-02-28T17:39:25.592Z,2.20
2023-02-28T17:41:54.966Z,1.80
2023-02-28T17:44:25.034Z,1.77
2023-02-28T17:46:54.561Z,1.77
2023-02-28T17:49:23.133Z,1.40
2023-02-28T17:51:51.682Z,1.60
2023-02-28T17:54:19.384Z,1.40
2023-02-28T17:56:47.526Z,1.35
2023-02-28T17:59:15.636Z,1.10
2023-02-28T18:01:43.455Z,1.20
2023-02-28T18:04:11.051Z,1.20
2023-02-28T18:06:52.603Z,1.30
2023-02-28T18:09:25.064Z,1.60
2023-02-28T18:11:54.300Z,1.20
2023-02-28T18:14:26.520Z,1.48
2023-02-28T18:16:56.181Z,0.90
2023-02-28T18:19:24.840Z,1.20
2023-02-28T18:22:01.320Z,1.00
2023-02-28T18:24:28.968Z,0.77
2023-02-28T18:26:56.528Z,0.82
2023-02-28T18:29:29.837Z,1.15
2023-02-28T18:31:57.815Z,1.00
2023-02-28T18:34:28.518Z,0.82
2023-02-28T18:36:56.932Z,1.15
2023-02-28T18:39:24.687Z,0.88
2023-02-28T18:41:52.365Z,1.15
2023-02-28T18:44:21.069Z,1.30
2023-02-28T18:46:50.849Z,1.20
2023-02-28T18:49:18.873Z,1.05
2023-02-28T18:51:47.150Z,0.95
2023-02-28T18:54:16.799Z,1.00
2023-02-28T18:56:44.638Z,0.75
2023-02-28T18:59:12.826Z,0.88
2023-02-28T19:01:41.247Z,0.70
2023-02-28T19:04:12.473Z,1.05
2023-02-28T19:06:40.343Z,1.00
2023-02-28T19:09:08.379Z,0.90
2023-02-28T19:11:36.825Z,0.90
2023-02-28T19:14:04.720Z,1.02
2023-02-28T19:16:32.655Z,1.10
2023-02-28T19:19:00.024Z,1.25
2023-02-28T19:21:27.302Z,1.10
2023-02-28T19:23:54.441Z,1.10
2023-02-28T19:26:26.790Z,1.20
2023-02-28T19:28:54.030Z,1.17
2023-02-28T19:31:23.762Z,1.50
2023-02-28T19:33:53.143Z,1.10
2023-02-28T19:36:21.105Z,1.25
2023-02-28T19:38:48.817Z,1.20
2023-02-28T19:41:17.228Z,0.80
2023-02-28T19:43:44.989Z,1.10
2023-02-28T19:46:13.122Z,1.27
2023-02-28T19:48:40.477Z,0.90
2023-02-28T19:51:10.706Z,1.05
2023-02-28T19:53:39.339Z,1.10
2023-02-28T19:56:07.091Z,1.10
2023-02-28T19:58:35.242Z,1.10
2023-02-28T20:01:14.314Z,1.00
2023-02-28T20:03:42.330Z,1.25
2023-02-28T20:06:13.833Z,0.90
2023-02-28T20:08:41.637Z,1.23
2023-02-28T20:11:11.538Z,1.00
2023-02-28T20:13:38.998Z,0.98
2023-02-28T20:16:09.805Z,1.00
2023-02-28T20:18:38.356Z,0.98
2023-02-28T20:21:07.943Z,1.20
2023-02-28T20:23:35.575Z,1.00
2023-02-28T20:26:02.733Z,1.35
2023-02-28T20:28:30.254Z,0.80
2023-02-28T20:30:57.461Z,1.00
2023-02-28T20:33:24.967Z,0.77
2023-02-28T20:35:59.705Z,0.95
2023-02-28T20:38:26.807Z,1.10
2023-02-28T20:40:59.459Z,0.90
2023-02-28T20:43:26.914Z,0.80
2023-02-28T20:45:58.324Z,0.80
2023-02-28T20:48:26.378Z,0.80
2023-02-28T20:50:55.999Z,0.85
2023-02-28T20:53:24.468Z,1.00
2023-02-28T20:56:06.165Z,0.80
2023-02-28T20:58:36.030Z,1.05
2023-02-28T21:01:16.208Z,1.00
2023-02-28T21:03:46.203Z,0.90
2023-02-28T21:06:14.793Z,0.90
2023-02-28T21:08:42.257Z,0.88
2023-02-28T21:11:17.976Z,1.00
2023-02-28T21:13:46.679Z,1.10
2023-02-28T21:16:16.119Z,1.08
2023-02-28T21:18:43.702Z,1.05
2023-02-28T21:21:17.186Z,1.17
2023-02-28T21:23:48.018Z,1.05
2023-02-28T21:26:20.375Z,1.00
2023-02-28T21:28:52.805Z,0.88
2023-02-28T21:31:22.258Z,1.13
2023-02-28T21:33:50.413Z,0.90
2023-02-28T21:36:19.635Z,0.93
2023-02-28T21:38:48.980Z,0.80
2023-02-28T21:41:18.970Z,0.90
2023-02-28T21:43:47.025Z,0.88
2023-02-28T21:46:17.504Z,1.00
2023-02-28T21:48:44.700Z,1.00
2023-02-28T21:51:14.564Z,0.80
2023-02-28T21:53:42.288Z,0.95
2023-02-28T21:56:14.553Z,0.88
2023-02-28T21:58:42.258Z,1.00
2023-02-28T22:01:15.479Z,0.70
2023-02-28T22:03:44.857Z,0.85
2023-02-28T22:06:14.020Z,0.80
2023-02-28T22:08:42.775Z,1.00
2023-02-28T22:11:10.594Z,0.90
2023-02-28T22:13:38.489Z,0.88
2023-02-28T22:16:07.937Z,1.05
2023-02-28T22:18:36.428Z,0.95
2023-02-28T22:21:04.534Z,1.27
2023-02-28T22:23:32.446Z,0.90
2023-02-28T22:26:04.595Z,0.95
2023-02-28T22:28:31.962Z,1.00
2023-02-28T22:30:59.816Z,1.10
2023-02-28T22:33:27.906Z,1.13
2023-02-28T22:35:55.122Z,1.15
2023-02-28T22:38:22.890Z,1.05
2023-02-28T22:40:50.086Z,1.10
2023-02-28T22:43:17.196Z,0.90
2023-02-28T22:45:44.410Z,1.02
2023-02-28T22:48:11.897Z,0.90
2023-02-28T22:50:39.000Z,1.17
2023-02-28T22:53:06.112Z,1.15
2023-02-28T22:55:33.324Z,1.00
2023-02-28T22:58:00.389Z,1.00
2023-02-28T23:00:28.112Z,1.10
2023-02-28T23:02:55.386Z,1.30
2023-02-28T23:05:22.796Z,0.93
2023-02-28T23:07:49.968Z,0.90
2023-02-28T23:10:18.516Z,1.00
2023-02-28T23:12:52.449Z,0.88
2023-02-28T23:15:21.076Z,1.20
2023-02-28T23:17:49.546Z,1.00
2023-02-28T23:20:20.595Z,1.40
2023-02-28T23:22:52.526Z,0.90
2023-02-28T23:25:20.670Z,0.90
2023-02-28T23:27:48.403Z,0.90
2023-02-28T23:30:16.148Z,0.98
2023-02-28T23:32:43.438Z,1.13
2023-02-28T23:35:12.380Z,1.08
2023-02-28T23:37:40.927Z,1.00
2023-02-28T23:40:11.639Z,0.90
2023-02-28T23:42:39.531Z,0.90
2023-02-28T23:45:07.642Z,1.00
2023-02-28T23:47:34.909Z,1.00
2023-02-28T23:50:02.172Z,0.80
2023-02-28T23:52:30.969Z,1.00
2023-02-28T23:54:58.121Z,0.90
2023-02-28T23:57:25.260Z,1.05
2023-02-28T23:59:52.451Z,0.98
